Time;durP1;ratioP1;P1;durP2;ratioP2;P2;SDS_P1;SDS_P2;PMS_P1;PMS_P2;Temp;Humidity;BMP_temperature;BMP_pressure;BME280_temperature;BME280_humidity;BME280_pressure;Samples;Min_cycle;Max_cycle;Signal;HPM_P1;HPM_P2
2023/03/21 00:01:52;;;;;;;78.90;34.80;;;;;;;8.74;88.14;98538.50;104971;1258;112111;-66
2023/03/21 00:04:21;;;;;;;66.30;30.90;;;;;;;8.81;88.43;98534.59;105100;1253;99181;-65
2023/03/21 00:06:49;;;;;;;55.70;29.80;;;;;;;8.84;88.26;98544.02;105135;1253;108748;-66
2023/03/21 00:09:16;;;;;;;53.10;27.00;;;;;;;8.85;87.92;98544.30;105036;1266;97976;-67
2023/03/21 00:11:44;;;;;;;53.60;28.10;;;;;;;8.78;87.86;98542.91;104955;1259;98697;-67
2023/03/21 00:14:18;;;;;;;52.40;26.50;;;;;;;8.72;87.92;98544.10;105252;1258;98028;-66
2023/03/21 00:16:49;;;;;;;51.80;26.90;;;;;;;8.69;88.31;98546.75;105158;1258;99435;-65
2023/03/21 00:19:25;;;;;;;49.10;25.80;;;;;;;8.64;88.48;98551.52;105163;1264;108677;-66
2023/03/21 00:21:54;;;;;;;49.00;26.30;;;;;;;8.61;88.61;98554.00;105076;1268;98016;-69
2023/03/21 00:24:35;;;;;;;45.40;25.10;;;;;;;8.58;89.04;98564.00;105017;1258;99216;-72
2023/03/21 00:27:03;;;;;;;37.40;19.60;;;;;;;8.49;89.97;98561.41;105130;1258;112122;-72
2023/03/21 00:29:51;;;;;;;22.30;11.70;;;;;;;8.37;91.39;98561.36;105219;1259;98081;-73
2023/03/21 00:32:20;;;;;;;20.50;12.60;;;;;;;8.28;91.49;98563.04;105228;1265;108551;-70
2023/03/21 00:34:48;;;;;;;22.10;12.60;;;;;;;8.22;92.48;98557.80;105264;1257;99133;-69
2023/03/21 00:37:35;;;;;;;17.70;11.20;;;;;;;8.16;92.60;98558.94;105180;1256;99003;-68
2023/03/21 00:40:08;;;;;;;17.20;10.20;;;;;;;8.13;92.36;98562.54;105008;1269;97910;-68
2023/03/21 00:42:48;;;;;;;22.20;11.30;;;;;;;8.08;93.08;98563.28;105117;1264;99274;-69
2023/03/21 00:45:18;;;;;;;17.80;10.50;;;;;;;8.05;93.26;98568.41;105029;1275;97972;-69
2023/03/21 00:47:45;;;;;;;16.20;9.60;;;;;;;8.03;92.89;98567.39;104940;1254;97901;-69
2023/03/21 00:50:13;;;;;;;16.30;9.50;;;;;;;7.99;93.49;98563.48;105133;1254;97922;-69
2023/03/21 00:52:40;;;;;;;12.00;7.30;;;;;;;7.95;93.72;98567.21;104984;1257;97919;-69
2023/03/21 00:55:13;;;;;;;12.70;6.80;;;;;;;7.89;94.22;98566.09;105015;1259;97980;-69
2023/03/21 00:57:40;;;;;;;11.20;7.00;;;;;;;7.84;93.89;98562.64;105086;1257;108740;-69
2023/03/21 01:00:11;;;;;;;11.60;7.00;;;;;;;7.80;93.81;98560.19;105017;1267;98002;-72
2023/03/21 01:02:54;;;;;;;9.50;5.80;;;;;;;7.78;93.68;98547.98;105248;1257;98533;-73
2023/03/21 01:08:20;;;;;;;10.40;6.00;;;;;;;7.85;93.04;98538.73;105013;1257;99126;-72
2023/03/21 01:11:02;;;;;;;11.10;6.10;;;;;;;7.89;92.32;98540.20;105031;1254;108638;-73
2023/03/21 01:13:29;;;;;;;12.60;6.80;;;;;;;7.93;92.23;98532.00;105043;1257;97919;-73
2023/03/21 01:15:58;;;;;;;10.90;6.30;;;;;;;7.97;92.42;98536.67;105036;1257;99100;-73
2023/03/21 01:18:28;;;;;;;11.50;7.60;;;;;;;8.01;92.37;98533.42;105051;1256;112193;-72
2023/03/21 01:20:58;;;;;;;15.50;9.60;;;;;;;8.09;92.20;98532.92;105079;1259;98761;-72
2023/03/21 01:23:28;;;;;;;14.90;9.00;;;;;;;8.11;91.88;98531.34;105025;1257;108370;-72
2023/03/21 01:25:56;;;;;;;14.10;8.60;;;;;;;8.15;92.15;98526.25;104907;1264;98002;-71
2023/03/21 01:28:26;;;;;;;15.90;9.50;;;;;;;8.18;91.76;98522.77;105022;1266;98433;-70
2023/03/21 01:30:54;;;;;;;23.50;13.70;;;;;;;8.25;91.84;98523.40;105016;1258;112338;-69
2023/03/21 01:33:22;;;;;;;24.70;14.00;;;;;;;8.27;91.66;98521.02;105076;1266;99189;-70
2023/03/21 01:35:49;;;;;;;19.30;11.00;;;;;;;8.30;91.50;98524.90;105023;1255;108714;-69
2023/03/21 01:38:32;;;;;;;19.10;11.40;;;;;;;8.32;91.31;98521.48;104873;1253;97995;-70
2023/03/21 01:41:03;;;;;;;13.90;8.30;;;;;;;8.32;91.17;98518.09;105086;1265;97945;-69
2023/03/21 01:43:44;;;;;;;15.50;8.10;;;;;;;8.30;90.56;98512.61;104852;1258;112132;-69
2023/03/21 01:46:36;;;;;;;17.20;10.00;;;;;;;8.29;90.81;98512.95;105011;1270;97928;-69
2023/03/21 01:49:33;;;;;;;12.30;7.70;;;;;;;8.34;91.17;98515.20;105017;1258;108729;-73
2023/03/21 01:52:05;;;;;;;21.90;13.20;;;;;;;8.28;90.56;98516.78;105061;1259;97924;-70
2023/03/21 01:54:42;;;;;;;17.00;10.20;;;;;;;8.21;90.53;98522.98;104995;1257;99100;-70
2023/03/21 01:57:15;;;;;;;20.30;10.90;;;;;;;8.12;89.87;98524.13;104926;1257;110894;-70
2023/03/21 01:59:49;;;;;;;26.40;14.10;;;;;;;8.06;90.67;98526.36;105048;1270;99275;-71
2023/03/21 02:02:23;;;;;;;22.40;13.50;;;;;;;8.04;90.66;98527.48;105056;1254;108626;-70
2023/03/21 02:04:54;;;;;;;18.30;11.60;;;;;;;7.99;90.59;98527.30;105065;1257;97868;-70
2023/03/21 02:07:34;;;;;;;21.40;12.50;;;;;;;7.92;91.06;98525.18;104748;1254;98349;-71
2023/03/21 02:10:05;;;;;;;19.20;10.30;;;;;;;7.87;90.67;98523.69;105076;1259;112928;-70
2023/03/21 02:12:33;;;;;;;31.60;16.40;;;;;;;7.83;90.87;98517.60;104958;1259;99277;-71
2023/03/21 02:14:59;;;;;;;20.10;11.40;;;;;;;7.80;91.06;98519.11;105245;1257;98834;-70
2023/03/21 02:17:42;;;;;;;18.50;10.80;;;;;;;7.77;90.83;98518.83;105263;1269;97992;-71
2023/03/21 02:20:34;;;;;;;18.60;11.00;;;;;;;7.74;90.69;98516.96;105237;1259;99260;-70
2023/03/21 02:23:19;;;;;;;17.30;11.90;;;;;;;7.71;90.93;98514.30;105118;1257;112221;-71
2023/03/21 02:25:59;;;;;;;18.60;11.60;;;;;;;7.70;91.25;98513.77;105172;1253;99363;-71
2023/03/21 02:28:38;;;;;;;13.70;8.40;;;;;;;7.69;91.11;98512.38;105186;1253;107584;-71
2023/03/21 02:31:22;;;;;;;19.40;10.30;;;;;;;7.69;91.26;98510.63;105184;1269;97928;-71
2023/03/21 02:33:48;;;;;;;17.20;9.60;;;;;;;7.70;91.40;98508.30;105100;1270;98428;-71
2023/03/21 02:36:27;;;;;;;16.30;8.60;;;;;;;7.71;91.28;98508.03;105124;1253;98825;-71
2023/03/21 02:39:13;;;;;;;15.40;9.30;;;;;;;7.70;91.24;98508.48;105232;1253;99497;-71
2023/03/21 02:41:58;;;;;;;28.40;17.50;;;;;;;7.66;91.65;98507.45;105056;1259;109221;-70
2023/03/21 02:44:44;;;;;;;20.60;13.00;;;;;;;7.63;91.15;98508.54;105111;1258;98074;-71
2023/03/21 02:47:18;;;;;;;19.80;10.80;;;;;;;7.63;91.43;98508.38;105137;1253;98411;-71
2023/03/21 02:49:53;;;;;;;15.50;9.10;;;;;;;7.63;91.44;98505.63;105027;1257;111488;-73
2023/03/21 02:52:25;;;;;;;13.10;7.60;;;;;;;7.62;91.47;98509.73;105220;1267;99347;-71
2023/03/21 02:55:12;;;;;;;14.40;8.20;;;;;;;7.58;91.88;98510.46;105218;1259;108490;-72
2023/03/21 02:57:43;;;;;;;14.40;8.40;;;;;;;7.56;91.74;98510.28;105005;1258;97928;-72
2023/03/21 03:00:17;;;;;;;13.90;8.60;;;;;;;7.56;91.36;98513.54;105188;1272;99098;-73
2023/03/21 03:02:45;;;;;;;15.70;8.80;;;;;;;7.57;91.68;98515.65;105047;1257;112253;-71
2023/03/21 03:05:20;;;;;;;17.00;10.00;;;;;;;7.59;91.44;98521.65;105029;1254;99177;-71
2023/03/21 03:08:06;;;;;;;23.40;13.30;;;;;;;7.57;91.67;98521.94;105190;1258;108630;-72
2023/03/21 03:11:07;;;;;;;23.40;12.10;;;;;;;7.58;91.47;98519.04;105169;1266;98028;-74
2023/03/21 03:14:11;;;;;;;16.50;9.10;;;;;;;7.58;91.86;98517.02;105241;1258;97884;-71
2023/03/21 03:17:29;;;;;;;14.00;8.10;;;;;;;7.56;91.65;98516.55;104544;1265;113750;-71
2023/03/21 03:20:58;;;;;;;15.10;7.40;;;;;;;7.53;91.66;98516.55;104552;1261;99502;-71
2023/03/21 03:23:40;;;;;;;12.90;7.90;;;;;;;7.48;92.09;98511.55;104512;1266;108577;-71
2023/03/21 03:26:31;;;;;;;14.90;8.90;;;;;;;7.46;92.33;98512.73;104377;1268;98115;-71
2023/03/21 03:29:12;;;;;;;18.50;10.90;;;;;;;7.44;92.16;98507.98;104177;1287;98414;-71
2023/03/21 03:31:50;;;;;;;14.80;7.80;;;;;;;7.42;92.41;98509.04;104173;1270;110849;-70
2023/03/21 03:34:27;;;;;;;18.30;8.30;;;;;;;7.41;92.28;98507.77;104386;1269;99318;-71
2023/03/21 03:37:10;;;;;;;15.90;8.60;;;;;;;7.40;92.35;98512.60;104282;1269;108782;-71
2023/03/21 03:40:05;;;;;;;13.00;7.70;;;;;;;7.38;92.47;98507.45;104181;1267;98242;-71
2023/03/21 03:42:58;;;;;;;13.40;7.70;;;;;;;7.37;92.47;98507.23;104230;1268;98565;-71
2023/03/21 03:45:38;;;;;;;18.20;9.20;;;;;;;7.37;92.51;98507.35;104389;1264;112256;-71
2023/03/21 03:48:12;;;;;;;15.40;8.00;;;;;;;7.37;92.92;98503.38;104233;1271;98874;-71
2023/03/21 03:51:08;;;;;;;16.30;9.70;;;;;;;7.36;92.75;98505.35;104470;1269;108077;-70
2023/03/21 03:53:54;;;;;;;28.30;12.60;;;;;;;7.37;92.94;98505.34;104407;1268;99241;-71
2023/03/21 03:56:26;;;;;;;18.00;9.20;;;;;;;7.35;92.76;98503.30;104782;1262;98424;-71
2023/03/21 03:59:03;;;;;;;16.80;8.80;;;;;;;7.37;93.07;98502.70;105048;1258;111843;-71
2023/03/21 04:01:36;;;;;;;14.70;8.40;;;;;;;7.37;92.61;98499.11;104962;1254;99233;-71
2023/03/21 04:04:10;;;;;;;19.40;10.60;;;;;;;7.37;92.86;98504.34;105248;1259;108961;-71
2023/03/21 04:06:40;;;;;;;24.10;12.80;;;;;;;7.38;92.79;98506.73;105039;1255;97928;-71
2023/03/21 04:09:07;;;;;;;23.60;12.90;;;;;;;7.41;92.75;98507.19;105193;1268;98444;-71
2023/03/21 04:11:47;;;;;;;26.40;13.90;;;;;;;7.44;92.96;98506.70;104929;1258;112182;-71
2023/03/21 04:14:14;;;;;;;18.30;10.40;;;;;;;7.45;92.88;98505.76;105128;1252;99213;-71
2023/03/21 04:16:41;;;;;;;15.70;8.60;;;;;;;7.45;92.87;98497.09;105051;1259;97886;-71
2023/03/21 04:19:08;;;;;;;17.40;9.10;;;;;;;7.45;92.94;98492.02;105256;1257;97999;-71
2023/03/21 04:21:35;;;;;;;15.00;8.40;;;;;;;7.46;93.21;98498.16;105261;1258;97904;-71
2023/03/21 04:24:02;;;;;;;37.70;15.10;;;;;;;7.47;92.79;98502.80;105118;1259;98850;-71
2023/03/21 04:26:32;;;;;;;206.90;63.20;;;;;;;7.44;93.04;98502.52;105133;1266;97925;-71
2023/03/21 04:29:02;;;;;;;108.00;32.30;;;;;;;7.44;93.19;98498.31;105133;1257;108739;-72
2023/03/21 04:31:32;;;;;;;55.80;22.70;;;;;;;7.42;93.36;98501.17;105060;1255;98500;-74
2023/03/21 04:34:01;;;;;;;48.40;17.00;;;;;;;7.39;93.15;98495.87;105234;1257;98837;-73
2023/03/21 04:36:37;;;;;;;34.40;14.40;;;;;;;7.36;93.43;98496.19;105253;1259;112323;-73
2023/03/21 04:39:11;;;;;;;143.60;40.10;;;;;;;7.34;93.04;98498.30;105062;1267;99202;-70
2023/03/21 04:41:39;;;;;;;241.90;60.00;;;;;;;7.33;92.99;98501.73;104948;1258;108180;-72
2023/03/21 04:44:07;;;;;;;136.40;35.50;;;;;;;7.32;92.89;98505.68;105046;1259;97995;-72
2023/03/21 04:46:35;;;;;;;116.40;33.00;;;;;;;7.33;93.25;98501.46;105296;1266;98403;-73
2023/03/21 04:49:02;;;;;;;207.40;48.60;;;;;;;7.32;93.18;98507.15;105206;1259;97992;-72
2023/03/21 04:51:29;;;;;;;129.20;35.40;;;;;;;7.33;93.11;98503.38;105051;1253;269566;-72
2023/03/21 04:53:56;;;;;;;63.70;22.60;;;;;;;7.34;93.21;98498.23;105131;1260;97935;-72
2023/03/21 04:56:31;;;;;;;74.80;24.20;;;;;;;7.33;92.86;98499.84;105240;1257;98039;-72
2023/03/21 04:59:07;;;;;;;153.60;42.30;;;;;;;7.34;93.24;98499.66;105233;1254;98409;-72
2023/03/21 05:01:34;;;;;;;102.50;31.30;;;;;;;7.36;93.34;98497.77;104954;1253;111837;-71
2023/03/21 05:04:03;;;;;;;70.90;23.90;;;;;;;7.40;93.24;98500.45;105127;1257;99247;-72
2023/03/21 05:06:30;;;;;;;63.70;26.00;;;;;;;7.44;93.05;98495.69;105018;1259;108557;-72
2023/03/21 05:09:00;;;;;;;85.50;26.90;;;;;;;7.46;92.96;98498.88;105174;1260;97990;-71
2023/03/21 05:11:29;;;;;;;78.80;24.60;;;;;;;7.47;92.82;98497.49;105068;1261;98347;-71
2023/03/21 05:14:00;;;;;;;118.30;33.00;;;;;;;7.50;92.95;98505.17;105221;1259;112185;-72
2023/03/21 05:16:29;;;;;;;175.30;48.00;;;;;;;7.51;92.93;98507.02;105104;1259;99365;-72
2023/03/21 05:19:03;;;;;;;49.90;20.00;;;;;;;7.51;93.21;98503.98;105048;1258;108526;-71
2023/03/21 05:21:40;;;;;;;22.90;13.10;;;;;;;7.49;93.07;98498.16;105246;1259;99312;-71
2023/03/21 05:24:18;;;;;;;20.50;11.40;;;;;;;7.45;92.89;98496.33;105247;1257;99194;-70
2023/03/21 05:26:49;;;;;;;57.70;21.70;;;;;;;7.47;93.22;98500.55;105244;1259;111287;-70
2023/03/21 05:29:17;;;;;;;83.10;27.20;;;;;;;7.46;92.69;98502.91;105108;1253;99829;-70
2023/03/21 05:31:45;;;;;;;114.50;34.00;;;;;;;7.47;92.95;98507.20;105179;1268;107804;-70
2023/03/21 05:34:13;;;;;;;78.80;26.60;;;;;;;7.49;92.60;98507.83;105072;1269;97902;-70
2023/03/21 05:36:40;;;;;;;57.10;21.90;;;;;;;7.50;93.20;98510.63;105170;1258;97997;-70
2023/03/21 05:39:07;;;;;;;109.10;32.90;;;;;;;7.50;93.10;98508.28;105229;1260;97909;-71
2023/03/21 05:41:34;;;;;;;82.20;27.30;;;;;;;7.54;93.36;98512.10;104918;1259;98480;-69
2023/03/21 05:44:00;;;;;;;44.10;17.30;;;;;;;7.57;93.16;98508.55;105205;1275;97899;-70
2023/03/21 05:46:27;;;;;;;83.80;26.80;;;;;;;7.59;92.83;98508.33;105080;1259;97972;-70
2023/03/21 05:48:54;;;;;;;106.30;33.30;;;;;;;7.62;93.36;98512.91;105125;1258;99209;-69
2023/03/21 05:51:21;;;;;;;77.40;24.90;;;;;;;7.69;93.15;98515.58;105249;1268;97994;-75
2023/03/21 05:53:49;;;;;;;44.20;18.30;;;;;;;7.72;93.40;98507.73;104907;1268;107315;-70
2023/03/21 05:56:16;;;;;;;28.70;15.20;;;;;;;7.77;93.31;98508.34;104977;1257;99184;-75
2023/03/21 05:58:43;;;;;;;22.40;12.10;;;;;;;7.81;92.74;98508.66;105221;1275;97937;-72
2023/03/21 06:01:10;;;;;;;38.20;16.00;;;;;;;7.83;93.10;98511.70;105223;1267;97929;-71
2023/03/21 06:03:37;;;;;;;46.40;17.10;;;;;;;7.86;92.61;98508.05;105198;1259;99214;-72
2023/03/21 06:06:05;;;;;;;71.70;25.00;;;;;;;7.89;92.69;98512.79;105127;1258;98008;-71
2023/03/21 06:08:32;;;;;;;62.80;22.30;;;;;;;7.93;92.88;98512.13;105982;1259;97917;-70
2023/03/21 06:10:59;;;;;;;39.30;19.10;;;;;;;7.96;93.05;98509.67;105336;1257;97982;-71
2023/03/21 06:13:26;;;;;;;70.90;26.80;;;;;;;8.03;93.04;98507.52;105092;1259;99097;-70
2023/03/21 06:15:53;;;;;;;63.90;23.40;;;;;;;8.07;92.58;98508.55;105079;1259;97944;-73
2023/03/21 06:18:20;;;;;;;52.10;19.50;;;;;;;8.11;92.69;98508.41;105063;1254;98057;-70
2023/03/21 06:20:48;;;;;;;51.90;20.10;;;;;;;8.17;93.17;98511.39;105097;1266;99257;-70
2023/03/21 06:23:15;;;;;;;51.90;20.90;;;;;;;8.23;93.07;98514.29;104197;1271;98103;-71
2023/03/21 06:25:42;;;;;;;61.60;24.00;;;;;;;8.29;92.77;98514.42;104153;1269;99278;-72
2023/03/21 06:28:09;;;;;;;64.80;24.90;;;;;;;8.35;92.44;98517.86;104179;1284;97993;-74
2023/03/21 06:30:36;;;;;;;50.50;20.80;;;;;;;8.40;92.67;98521.33;104111;1281;99353;-70
2023/03/21 06:33:03;;;;;;;57.30;23.20;;;;;;;8.45;92.23;98522.34;104168;1280;97983;-70
2023/03/21 06:35:30;;;;;;;73.30;25.80;;;;;;;8.46;92.04;98520.55;104165;1271;99449;-71
2023/03/21 06:37:58;;;;;;;45.00;18.90;;;;;;;8.46;91.92;98525.42;104093;1272;98091;-72
2023/03/21 06:40:25;;;;;;;75.30;27.60;;;;;;;8.48;92.41;98529.10;104527;1263;98878;-72
2023/03/21 06:42:52;;;;;;;60.40;23.30;;;;;;;8.51;92.42;98525.64;104953;1269;98063;-70
2023/03/21 06:45:19;;;;;;;65.50;24.70;;;;;;;8.49;91.96;98529.29;104855;1253;98345;-70
2023/03/21 06:47:46;;;;;;;49.80;20.70;;;;;;;8.46;92.02;98533.84;105027;1258;99315;-71
2023/03/21 06:50:14;;;;;;;27.90;13.90;;;;;;;8.40;91.67;98530.73;105195;1259;99209;-70
2023/03/21 06:52:41;;;;;;;23.10;12.20;;;;;;;8.32;91.93;98536.72;105201;1259;99220;-73
2023/03/21 06:55:08;;;;;;;22.90;12.40;;;;;;;8.28;92.00;98538.69;105255;1267;97895;-71
2023/03/21 06:57:35;;;;;;;22.80;12.80;;;;;;;8.22;92.19;98541.80;105209;1260;112251;-71
2023/03/21 07:00:04;;;;;;;25.00;12.90;;;;;;;8.17;92.77;98548.89;105253;1272;97929;-71
2023/03/21 07:02:31;;;;;;;37.10;18.00;;;;;;;8.16;92.54;98549.94;105052;1257;108662;-71
2023/03/21 07:04:58;;;;;;;24.60;13.30;;;;;;;8.17;92.84;98554.00;105213;1269;98845;-70
2023/03/21 07:07:26;;;;;;;26.60;14.70;;;;;;;8.15;92.78;98557.70;105169;1264;97896;-70
2023/03/21 07:09:53;;;;;;;27.50;14.50;;;;;;;8.17;93.15;98560.06;105072;1253;97926;-72
2023/03/21 07:12:21;;;;;;;26.80;14.70;;;;;;;8.13;93.10;98562.65;105062;1275;97865;-75
2023/03/21 07:14:49;;;;;;;28.10;15.60;;;;;;;8.10;93.06;98566.63;105057;1275;108300;-72
2023/03/21 07:17:16;;;;;;;30.20;16.40;;;;;;;8.09;93.71;98572.70;105046;1267;97935;-74
2023/03/21 07:19:43;;;;;;;28.60;16.60;;;;;;;8.12;93.52;98572.71;105043;1259;97924;-72
2023/03/21 07:22:10;;;;;;;28.80;15.70;;;;;;;8.16;93.40;98575.86;105003;1259;97952;-71
2023/03/21 07:24:37;;;;;;;27.60;15.40;;;;;;;8.17;93.50;98576.23;105124;1275;98801;-72
2023/03/21 07:27:04;;;;;;;28.50;16.90;;;;;;;8.19;93.87;98579.04;105092;1260;98039;-71
2023/03/21 07:29:31;;;;;;;30.00;16.70;;;;;;;8.17;94.07;98578.63;105010;1267;99231;-70
2023/03/21 07:31:58;;;;;;;35.70;18.50;;;;;;;8.18;93.88;98578.74;106278;1267;97822;-71
2023/03/21 07:34:30;;;;;;;31.00;17.30;;;;;;;8.18;94.20;98576.66;105174;1264;98442;-70
2023/03/21 07:36:57;;;;;;;29.20;17.60;;;;;;;8.19;93.80;98578.01;105191;1260;108385;-70
2023/03/21 07:39:25;;;;;;;31.20;17.40;;;;;;;8.21;94.09;98578.58;105239;1259;97956;-70
2023/03/21 07:41:56;;;;;;;34.30;18.90;;;;;;;8.25;94.08;98576.59;105231;1266;98326;-70
2023/03/21 07:44:23;;;;;;;32.70;19.20;;;;;;;8.34;94.36;98578.60;105216;1267;112041;-69
2023/03/21 07:46:50;;;;;;;33.50;18.50;;;;;;;8.39;94.42;98576.39;105234;1259;99314;-70
2023/03/21 07:49:17;;;;;;;31.80;18.10;;;;;;;8.46;94.42;98579.98;105187;1270;99260;-70
2023/03/21 07:51:44;;;;;;;36.60;18.90;;;;;;;8.52;94.35;98581.95;105157;1264;98633;-69
2023/03/21 07:54:11;;;;;;;33.90;20.00;;;;;;;8.55;94.43;98581.54;105267;1259;97940;-69
2023/03/21 07:56:38;;;;;;;34.90;18.90;;;;;;;8.57;94.45;98580.14;105014;1253;97912;-69
2023/03/21 07:59:05;;;;;;;37.00;19.20;;;;;;;8.57;94.53;98584.19;105126;1254;97933;-70
2023/03/21 08:01:32;;;;;;;32.50;16.80;;;;;;;8.62;95.06;98583.16;105138;1270;99080;-70
2023/03/21 08:03:58;;;;;;;28.70;15.70;;;;;;;8.66;94.54;98586.13;105193;1267;97916;-70
2023/03/21 08:06:28;;;;;;;30.40;16.00;;;;;;;8.70;94.64;98589.50;105198;1259;97991;-70
2023/03/21 08:08:55;;;;;;;31.30;17.00;;;;;;;8.74;94.28;98587.20;105253;1258;99209;-70
2023/03/21 08:11:23;;;;;;;28.00;16.10;;;;;;;8.79;94.35;98589.02;105128;1268;97926;-70
2023/03/21 08:13:50;;;;;;;29.20;16.50;;;;;;;8.79;94.05;98590.21;105019;1259;97951;-69
2023/03/21 08:16:17;;;;;;;26.80;16.30;;;;;;;8.83;94.12;98595.86;105208;1253;97925;-70
2023/03/21 08:18:44;;;;;;;28.80;16.20;;;;;;;8.87;94.08;98593.48;105190;1268;98338;-70
2023/03/21 08:21:11;;;;;;;29.60;17.10;;;;;;;8.94;94.21;98593.52;105205;1267;98073;-70
2023/03/21 08:23:38;;;;;;;27.80;16.70;;;;;;;9.00;93.94;98591.89;105148;1259;99254;-70
2023/03/21 08:26:06;;;;;;;31.50;17.70;;;;;;;9.02;93.84;98591.56;104778;1276;98027;-70
2023/03/21 08:28:35;;;;;;;32.10;16.70;;;;;;;9.03;93.72;98591.38;105390;1259;97895;-70
2023/03/21 08:31:11;;;;;;;26.10;15.20;;;;;;;9.04;93.72;98591.73;105845;1259;98864;-71
2023/03/21 08:33:38;;;;;;;25.00;15.00;;;;;;;9.06;93.73;98588.70;105024;1259;99063;-70
2023/03/21 08:36:06;;;;;;;27.60;15.20;;;;;;;9.11;93.81;98589.71;105178;1275;97898;-72
2023/03/21 08:38:33;;;;;;;26.90;15.20;;;;;;;9.15;93.64;98589.98;105036;1257;97968;-72
2023/03/21 08:41:00;;;;;;;26.80;15.40;;;;;;;9.19;93.69;98592.31;105258;1267;97912;-70
2023/03/21 08:43:28;;;;;;;23.90;14.40;;;;;;;9.23;93.93;98600.65;105242;1256;99257;-71
2023/03/21 08:45:55;;;;;;;26.70;15.10;;;;;;;9.26;93.99;98595.28;105283;1254;97918;-70
2023/03/21 08:48:22;;;;;;;27.00;15.30;;;;;;;9.37;93.99;98595.35;105264;1266;99187;-71
2023/03/21 08:50:50;;;;;;;31.90;15.80;;;;;;;9.47;93.85;98594.44;105261;1256;97947;-70
2023/03/21 08:53:17;;;;;;;27.10;14.50;;;;;;;9.55;93.73;98594.20;105155;1256;98370;-71
2023/03/21 08:55:44;;;;;;;26.10;14.40;;;;;;;9.61;93.56;98595.05;104966;1269;98017;-70
2023/03/21 08:58:11;;;;;;;27.30;14.50;;;;;;;9.67;93.45;98597.60;105145;1267;97966;-70
2023/03/21 09:00:38;;;;;;;23.50;14.10;;;;;;;9.76;93.13;98597.39;105277;1256;99117;-71
2023/03/21 09:03:05;;;;;;;25.80;13.90;;;;;;;9.81;92.57;98600.23;105206;1267;97934;-70
2023/03/21 09:05:32;;;;;;;25.30;14.00;;;;;;;9.82;92.31;98601.69;105291;1264;98162;-71
2023/03/21 09:08:00;;;;;;;21.90;12.70;;;;;;;9.85;92.03;98603.48;105268;1256;99117;-71
2023/03/21 09:10:27;;;;;;;22.20;12.60;;;;;;;9.86;91.76;98608.06;105185;1256;108661;-71
2023/03/21 09:13:00;;;;;;;22.90;13.10;;;;;;;9.89;92.12;98608.30;105191;1257;98006;-71
2023/03/21 09:15:39;;;;;;;25.60;13.10;;;;;;;9.91;91.17;98612.25;105135;1256;98363;-71
2023/03/21 09:18:16;;;;;;;;;;;;;;;9.89;90.78;98619.02;105154;1254;111180;-72
2023/03/21 09:20:54;;;;;;;24.60;13.20;;;;;;;9.81;89.97;98619.06;104979;1262;99047;-70
2023/03/21 09:23:32;;;;;;;27.20;13.80;;;;;;;9.77;90.53;98617.29;105240;1267;107184;-71
2023/03/21 09:26:01;;;;;;;26.20;14.30;;;;;;;9.77;90.73;98623.39;106122;1256;97919;-71
2023/03/21 09:28:37;;;;;;;26.80;14.40;;;;;;;9.75;90.37;98619.23;105096;1259;97909;-72
2023/03/21 09:31:15;;;;;;;28.90;16.10;;;;;;;9.72;90.66;98622.17;105092;1266;110725;-72
2023/03/21 09:33:56;;;;;;;29.80;16.50;;;;;;;9.72;90.97;98622.66;105058;1267;99271;-72
2023/03/21 09:36:31;;;;;;;32.00;17.80;;;;;;;9.75;91.21;98626.48;105184;1253;108814;-71
2023/03/21 09:38:58;;;;;;;32.60;18.40;;;;;;;9.82;91.57;98626.54;105206;1265;97935;-70
2023/03/21 09:41:28;;;;;;;34.70;19.60;;;;;;;9.89;91.50;98629.43;105275;1255;99734;-70
2023/03/21 09:44:02;;;;;;;32.70;18.40;;;;;;;9.99;91.54;98633.05;105199;1257;112070;-70
2023/03/21 09:46:44;;;;;;;29.40;16.30;;;;;;;10.03;90.46;98636.16;105307;1257;99331;-70
2023/03/21 09:49:20;;;;;;;34.30;18.10;;;;;;;9.97;89.32;98633.73;105331;1253;107949;-70
2023/03/21 09:51:53;;;;;;;33.70;17.00;;;;;;;9.94;89.43;98633.37;105204;1257;99025;-71
2023/03/21 09:54:28;;;;;;;30.60;17.30;;;;;;;9.91;89.32;98634.20;105293;1257;97986;-70
2023/03/21 09:57:00;;;;;;;35.10;18.80;;;;;;;9.86;89.90;98631.82;105143;1256;111859;-73
2023/03/21 09:59:40;;;;;;;29.80;18.20;;;;;;;9.84;90.02;98627.05;105192;1256;99243;-77
2023/03/21 10:02:34;;;;;;;31.90;16.80;;;;;;;9.85;89.91;98627.63;105313;1264;108322;-71
2023/03/21 10:05:12;;;;;;;33.70;18.00;;;;;;;9.86;89.12;98627.11;105321;1254;97906;-70
2023/03/21 10:07:47;;;;;;;32.30;17.50;;;;;;;9.84;89.33;98628.20;105162;1269;98510;-71
2023/03/21 10:10:21;;;;;;;29.60;17.50;;;;;;;9.80;88.71;98628.79;105117;1256;110320;-70
2023/03/21 10:12:51;;;;;;;33.30;17.40;;;;;;;9.79;89.14;98628.45;105278;1256;98842;-70
2023/03/21 10:15:22;;;;;;;30.40;19.20;;;;;;;9.82;88.98;98631.30;105216;1256;109384;-71
2023/03/21 10:17:57;;;;;;;33.50;21.40;;;;;;;9.82;89.08;98627.92;105228;1256;99257;-71
2023/03/21 10:20:25;;;;;;;27.80;17.00;;;;;;;9.83;89.01;98625.20;105212;1256;98031;-71
2023/03/21 10:22:55;;;;;;;29.10;16.60;;;;;;;9.86;89.15;98624.55;106432;1268;112161;-71
2023/03/21 10:25:36;;;;;;;30.60;16.90;;;;;;;9.86;89.09;98625.80;105313;1267;99327;-71
2023/03/21 10:28:08;;;;;;;31.50;18.50;;;;;;;9.84;89.00;98623.66;105241;1258;108674;-71
2023/03/21 10:30:43;;;;;;;34.70;19.80;;;;;;;9.84;89.42;98624.98;105066;1267;97893;-70
2023/03/21 10:33:16;;;;;;;30.10;18.00;;;;;;;9.81;89.31;98622.29;105223;1269;98420;-70
2023/03/21 10:35:48;;;;;;;33.30;19.20;;;;;;;9.84;89.32;98625.07;105161;1260;112128;-70
2023/03/21 10:38:20;;;;;;;33.70;18.50;;;;;;;9.91;89.56;98626.99;105234;1266;99241;-70
2023/03/21 10:40:47;;;;;;;33.40;18.40;;;;;;;9.91;88.41;98630.05;105063;1256;107613;-70
2023/03/21 10:43:26;;;;;;;33.10;18.30;;;;;;;9.91;88.72;98629.38;105268;1260;97990;-70
2023/03/21 10:45:54;;;;;;;35.60;19.70;;;;;;;9.96;88.56;98629.52;105235;1265;99043;-70
2023/03/21 10:48:24;;;;;;;33.20;18.40;;;;;;;9.96;88.50;98627.69;105252;1256;112248;-71
2023/03/21 10:50:54;;;;;;;29.70;18.00;;;;;;;9.98;88.53;98627.77;105059;1258;99235;-70
2023/03/21 10:53:28;;;;;;;32.10;18.20;;;;;;;10.04;88.63;98626.36;105032;1256;109045;-71
2023/03/21 10:55:59;;;;;;;35.00;19.50;;;;;;;10.12;88.50;98624.98;105300;1253;97944;-70
2023/03/21 10:58:34;;;;;;;35.80;20.10;;;;;;;10.18;88.15;98626.13;105261;1257;97912;-71
2023/03/21 11:01:09;;;;;;;38.30;19.70;;;;;;;10.12;88.11;98618.40;104972;1267;112272;-71
2023/03/21 11:03:42;;;;;;;34.80;19.10;;;;;;;10.10;87.99;98617.12;105195;1267;98134;-71
2023/03/21 11:06:31;;;;;;;40.10;20.60;;;;;;;10.10;87.84;98619.86;105057;1256;108795;-71
2023/03/21 11:09:12;;;;;;;39.60;22.30;;;;;;;10.08;87.23;98620.23;105094;1260;99098;-71
2023/03/21 11:11:40;;;;;;;;;;;;;;;9.98;87.38;98616.64;105094;1267;97904;-70
2023/03/21 11:14:25;;;;;;;37.30;19.70;;;;;;;9.98;87.96;98617.73;104910;1264;111715;-71
2023/03/21 11:16:52;;;;;;;33.40;18.70;;;;;;;10.07;88.12;98623.39;105020;1275;98111;-71
2023/03/21 11:19:31;;;;;;;35.60;19.30;;;;;;;10.07;87.32;98623.21;105258;1256;97871;-73
2023/03/21 11:22:04;;;;;;;36.70;19.10;;;;;;;10.05;86.87;98620.30;105047;1267;97837;-72
2023/03/21 11:24:32;;;;;;;33.50;18.60;;;;;;;10.04;87.43;98621.36;105062;1260;99695;-72
2023/03/21 11:27:07;;;;;;;37.70;19.90;;;;;;;10.08;87.42;98625.31;105323;1260;111848;-70
2023/03/21 11:29:39;;;;;;;38.00;21.40;;;;;;;10.11;86.90;98620.16;105243;1266;98732;-70
2023/03/21 11:32:30;;;;;;;38.30;20.30;;;;;;;10.11;86.46;98615.62;105249;1269;108173;-71
2023/03/21 11:35:38;;;;;;;38.20;20.80;;;;;;;10.15;86.97;98613.99;105006;1270;97918;-71
2023/03/21 11:38:31;;;;;;;32.80;18.70;;;;;;;10.22;86.48;98616.77;105104;1255;97922;-71
2023/03/21 11:41:01;;;;;;;32.50;19.10;;;;;;;10.23;86.01;98610.13;105085;1266;111642;-72
2023/03/21 11:43:38;;;;;;;32.80;19.40;;;;;;;10.15;85.57;98613.87;105252;1267;99132;-71
2023/03/21 11:46:11;;;;;;;31.90;17.50;;;;;;;10.09;85.86;98610.33;105185;1266;108460;-70